createdAt,value
2019-01-09T04:02:57.348Z,957.90
2019-01-09T04:03:55.065Z,957.97
2019-01-09T04:04:55.036Z,957.93
2019-01-09T04:05:55.005Z,957.94
2019-01-09T04:06:54.974Z,957.90
2019-01-09T04:07:54.950Z,957.88
2019-01-09T04:08:55.665Z,957.87
2019-01-09T04:09:54.884Z,957.83
2019-01-09T04:10:54.854Z,957.84
2019-01-09T04:11:54.822Z,957.86
2019-01-09T04:12:54.792Z,957.82
2019-01-09T04:13:54.762Z,957.82
2019-01-09T04:14:54.734Z,957.77
2019-01-09T04:15:54.700Z,957.71
2019-01-09T04:16:54.672Z,957.64
2019-01-09T04:17:54.641Z,957.62
2019-01-09T04:18:54.610Z,957.61
2019-01-09T04:19:54.579Z,957.64
2019-01-09T04:20:54.551Z,957.66
2019-01-09T04:21:54.522Z,957.61
2019-01-09T04:22:54.489Z,957.61
2019-01-09T04:23:54.459Z,957.57
2019-01-09T04:24:54.429Z,957.58
2019-01-09T04:25:54.400Z,957.57
2019-01-09T04:26:54.367Z,957.60
2019-01-09T04:27:54.337Z,957.58
2019-01-09T04:28:54.308Z,957.54
2019-01-09T04:29:54.278Z,957.52
2019-01-09T04:30:54.249Z,957.50
2019-01-09T04:31:54.218Z,957.44
2019-01-09T04:32:54.187Z,957.47
2019-01-09T04:33:54.157Z,957.48
2019-01-09T04:34:54.127Z,957.43
2019-01-09T04:35:54.098Z,957.42
2019-01-09T04:36:54.066Z,957.42
2019-01-09T04:37:54.046Z,957.45
2019-01-09T04:38:54.006Z,957.46
2019-01-09T04:39:53.975Z,957.45
2019-01-09T04:40:53.945Z,957.48
2019-01-09T04:41:53.916Z,957.48
2019-01-09T04:42:53.886Z,957.51
2019-01-09T04:43:53.855Z,957.46
2019-01-09T04:44:53.825Z,957.45
2019-01-09T04:45:53.795Z,957.42
2019-01-09T04:46:53.766Z,957.43
2019-01-09T04:47:53.738Z,957.42
2019-01-09T04:48:53.706Z,957.35
2019-01-09T04:49:53.678Z,957.42
2019-01-09T04:50:53.646Z,957.44
2019-01-09T04:51:53.614Z,957.44
2019-01-09T04:52:53.585Z,957.41
2019-01-09T04:53:53.555Z,957.43
2019-01-09T04:54:53.528Z,957.45
2019-01-09T04:55:53.495Z,957.43
2019-01-09T04:56:53.480Z,957.46
2019-01-09T04:57:53.436Z,957.46
2019-01-09T04:58:53.405Z,957.44
2019-01-09T04:59:53.374Z,957.44
2019-01-09T05:00:53.344Z,957.45
2019-01-09T05:01:54.064Z,957.45
2019-01-09T05:02:53.284Z,957.39
2019-01-09T05:03:53.263Z,957.40
2019-01-09T05:04:53.223Z,957.37
2019-01-09T05:05:53.193Z,957.34
2019-01-09T05:07:00.508Z,957.32
2019-01-09T05:07:53.133Z,957.29
2019-01-09T05:08:53.102Z,957.28
2019-01-09T05:09:53.808Z,957.25
2019-01-09T05:10:53.042Z,957.24
2019-01-09T05:11:53.013Z,957.24
2019-01-09T05:12:52.986Z,957.25
2019-01-09T05:13:52.951Z,957.24
2019-01-09T05:14:52.923Z,957.22
2019-01-09T05:15:52.891Z,957.21
2019-01-09T05:16:52.862Z,957.27
2019-01-09T05:17:52.830Z,957.23
2019-01-09T05:18:52.800Z,957.22
2019-01-09T05:19:52.770Z,957.20
2019-01-09T05:20:52.740Z,957.20
2019-01-09T05:21:52.709Z,957.17
2019-01-09T05:22:52.688Z,957.17
2019-01-09T05:23:52.648Z,957.13
2019-01-09T05:24:52.629Z,957.10
2019-01-09T05:25:52.589Z,957.07
2019-01-09T05:26:52.559Z,957.11
2019-01-09T05:27:53.278Z,957.09
2019-01-09T05:28:52.499Z,957.05
2019-01-09T05:29:52.467Z,957.08
2019-01-09T05:30:52.445Z,957.09
2019-01-09T05:31:52.406Z,957.05
2019-01-09T05:32:52.376Z,957.01
2019-01-09T05:33:52.349Z,956.94
2019-01-09T05:34:52.319Z,956.88
2019-01-09T05:35:52.287Z,956.88
2019-01-09T05:36:52.263Z,956.89
2019-01-09T05:37:52.225Z,956.88
2019-01-09T05:38:52.195Z,956.87
2019-01-09T05:39:52.166Z,956.95
2019-01-09T05:40:52.134Z,956.97
2019-01-09T05:41:52.104Z,957.04
2019-01-09T05:42:52.075Z,957.01
2019-01-09T05:43:52.043Z,957.04
2019-01-09T05:44:52.013Z,956.97
2019-01-09T05:45:51.983Z,956.97
2019-01-09T05:46:51.954Z,956.97
2019-01-09T05:47:51.923Z,956.98
2019-01-09T05:48:51.894Z,957.01
2019-01-09T05:49:51.863Z,957.05
2019-01-09T05:50:51.834Z,957.04
2019-01-09T05:51:51.800Z,956.98
2019-01-09T05:52:51.769Z,957.05
2019-01-09T05:53:51.739Z,957.05
2019-01-09T05:54:51.709Z,957.06
2019-01-09T05:55:51.682Z,957.00
2019-01-09T05:56:51.647Z,957.01
2019-01-09T05:57:51.617Z,957.00
2019-01-09T05:58:51.585Z,957.07
2019-01-09T05:59:51.555Z,957.02
2019-01-09T06:00:51.527Z,956.96
2019-01-09T06:01:51.494Z,956.99
2019-01-09T06:02:51.463Z,956.91
2019-01-09T06:03:51.434Z,956.91
2019-01-09T06:04:52.152Z,956.87
2019-01-09T06:05:51.371Z,956.80
2019-01-09T06:06:51.342Z,956.94
2019-01-09T06:07:51.310Z,956.84
2019-01-09T06:08:51.281Z,956.89
2019-01-09T06:09:51.249Z,956.90
2019-01-09T06:10:51.219Z,956.91
2019-01-09T06:11:51.188Z,956.85
2019-01-09T06:12:51.156Z,956.85
2019-01-09T06:13:51.129Z,956.83
2019-01-09T06:14:51.097Z,956.76
2019-01-09T06:15:51.064Z,956.79
2019-01-09T06:16:51.034Z,956.82
2019-01-09T06:17:51.003Z,956.78
2019-01-09T06:18:50.973Z,956.81
2019-01-09T06:19:50.941Z,956.75
2019-01-09T06:20:50.986Z,956.75
2019-01-09T06:21:50.880Z,956.78
2019-01-09T06:22:50.850Z,956.77
2019-01-09T06:23:50.818Z,956.78
2019-01-09T06:24:50.788Z,956.73
2019-01-09T06:25:50.759Z,956.74
2019-01-09T06:26:50.727Z,956.72
2019-01-09T06:27:50.709Z,956.67
2019-01-09T06:28:50.664Z,956.62
2019-01-09T06:29:50.636Z,956.63
2019-01-09T06:30:50.604Z,956.69
2019-01-09T06:31:50.572Z,956.62
2019-01-09T06:32:50.541Z,956.64
2019-01-09T06:33:50.515Z,956.66
2019-01-09T06:34:50.482Z,956.67
2019-01-09T06:35:50.450Z,956.68
2019-01-09T06:36:50.419Z,956.71
2019-01-09T06:37:50.388Z,956.72
2019-01-09T06:38:50.370Z,956.67
2019-01-09T06:39:50.324Z,956.67
2019-01-09T06:40:50.297Z,956.75
2019-01-09T06:41:50.266Z,956.69
2019-01-09T06:42:50.233Z,956.73
2019-01-09T06:43:50.201Z,956.72
2019-01-09T06:44:50.171Z,956.73
2019-01-09T06:45:50.140Z,956.71
2019-01-09T06:46:50.108Z,956.72
2019-01-09T06:47:50.078Z,956.68
2019-01-09T06:48:50.048Z,956.64
2019-01-09T06:49:50.018Z,956.67
2019-01-09T06:50:49.986Z,956.65
2019-01-09T06:51:49.955Z,956.64
2019-01-09T06:52:52.176Z,956.57
2019-01-09T06:53:49.899Z,956.57
2019-01-09T06:54:49.870Z,956.55
2019-01-09T06:55:49.869Z,956.60
2019-01-09T06:56:49.802Z,956.59
2019-01-09T06:57:49.771Z,956.56
2019-01-09T06:58:50.491Z,956.64
2019-01-09T06:59:49.710Z,956.65
2019-01-09T07:00:49.679Z,956.71
2019-01-09T07:01:49.648Z,956.67
2019-01-09T07:02:49.651Z,956.72
2019-01-09T07:03:49.586Z,956.75
2019-01-09T07:04:49.556Z,956.80
2019-01-09T07:05:49.525Z,956.76
2019-01-09T07:06:49.494Z,956.80
2019-01-09T07:07:49.463Z,956.79
2019-01-09T07:08:49.432Z,956.80
2019-01-09T07:09:49.402Z,956.76
2019-01-09T07:10:49.373Z,956.76
2019-01-09T07:11:49.340Z,956.77
2019-01-09T07:12:49.311Z,956.77
2019-01-09T07:13:49.279Z,956.76
2019-01-09T07:14:49.999Z,956.75
2019-01-09T07:15:49.224Z,956.80
2019-01-09T07:16:49.187Z,956.78
2019-01-09T07:17:49.158Z,956.80
2019-01-09T07:18:49.127Z,956.84
2019-01-09T07:19:49.095Z,956.80
2019-01-09T07:20:49.064Z,956.79
2019-01-09T07:21:49.034Z,956.85
2019-01-09T07:22:49.005Z,956.84
2019-01-09T07:23:48.972Z,956.85
2019-01-09T07:24:48.942Z,956.86
2019-01-09T07:25:48.912Z,956.87
2019-01-09T07:26:48.885Z,956.80
2019-01-09T07:27:48.849Z,956.85
2019-01-09T07:28:48.819Z,956.80
2019-01-09T07:29:48.790Z,956.82
2019-01-09T07:30:48.758Z,956.81
2019-01-09T07:31:48.726Z,956.80
2019-01-09T07:32:48.696Z,956.83
2019-01-09T07:33:48.666Z,956.79
2019-01-09T07:34:48.638Z,956.71
2019-01-09T07:35:48.607Z,956.72
2019-01-09T07:36:49.325Z,956.76
2019-01-09T07:37:48.545Z,956.73
2019-01-09T07:38:48.516Z,956.73
2019-01-09T07:39:48.482Z,956.73
2019-01-09T07:40:48.452Z,956.70
2019-01-09T07:41:48.422Z,956.69
2019-01-09T07:42:48.392Z,956.70
2019-01-09T07:43:48.360Z,956.68
2019-01-09T07:44:48.329Z,956.72
2019-01-09T07:45:48.298Z,956.71
2019-01-09T07:46:48.271Z,956.73
2019-01-09T07:47:50.490Z,956.75
2019-01-09T07:48:48.206Z,956.70
2019-01-09T07:49:48.175Z,956.72
2019-01-09T07:50:48.144Z,956.73
2019-01-09T07:51:48.117Z,956.77
2019-01-09T07:52:48.083Z,956.73
2019-01-09T07:53:48.803Z,956.69
2019-01-09T07:54:48.024Z,956.69
2019-01-09T07:55:47.991Z,956.68
2019-01-09T07:56:47.960Z,956.68
2019-01-09T07:57:47.930Z,956.74
2019-01-09T07:58:47.903Z,956.76
2019-01-09T07:59:47.867Z,956.80
2019-01-09T08:00:47.837Z,956.77
2019-01-09T08:01:47.805Z,956.71
2019-01-09T08:02:47.777Z,956.72
2019-01-09T08:03:47.744Z,956.81
2019-01-09T08:04:47.713Z,956.79
2019-01-09T08:05:47.683Z,956.81
2019-01-09T08:06:47.652Z,956.80
2019-01-09T08:07:53.892Z,956.83
2019-01-09T08:08:47.589Z,956.78
2019-01-09T08:09:47.564Z,956.77
2019-01-09T08:10:47.529Z,956.78
2019-01-09T08:11:47.499Z,956.78
2019-01-09T08:12:47.466Z,956.78
2019-01-09T08:13:47.437Z,956.74
2019-01-09T08:14:47.406Z,956.71
2019-01-09T08:15:47.374Z,956.67
2019-01-09T08:16:47.344Z,956.68
2019-01-09T08:17:47.314Z,956.69
2019-01-09T08:18:48.405Z,956.72
2019-01-09T08:19:47.254Z,956.74
2019-01-09T08:20:49.473Z,956.77
2019-01-09T08:21:47.190Z,956.81
2019-01-09T08:22:47.160Z,956.78
2019-01-09T08:23:47.128Z,956.82
2019-01-09T08:24:47.097Z,956.77
2019-01-09T08:25:47.067Z,956.82
2019-01-09T08:26:48.538Z,956.81
2019-01-09T08:27:47.005Z,956.85
2019-01-09T08:28:46.976Z,956.90
2019-01-09T08:29:46.944Z,956.86
2019-01-09T08:30:46.914Z,956.91
2019-01-09T08:31:46.882Z,956.94
2019-01-09T08:32:46.851Z,956.91
2019-01-09T08:33:46.821Z,956.95
2019-01-09T08:34:46.791Z,956.89
2019-01-09T08:35:46.762Z,956.90
2019-01-09T08:36:46.730Z,956.88
2019-01-09T08:37:46.698Z,956.89
2019-01-09T08:38:46.668Z,956.88
2019-01-09T08:39:46.636Z,956.95
2019-01-09T08:40:46.604Z,956.93
2019-01-09T08:41:46.575Z,956.88
2019-01-09T08:42:46.544Z,956.92
2019-01-09T08:43:46.512Z,956.95
2019-01-09T08:44:46.481Z,956.95
2019-01-09T08:45:46.451Z,957.01
2019-01-09T08:46:46.421Z,957.02
2019-01-09T08:47:46.389Z,957.08
2019-01-09T08:48:46.359Z,957.10
2019-01-09T08:49:46.329Z,957.12
2019-01-09T08:50:46.299Z,957.09
2019-01-09T08:51:46.269Z,957.06
2019-01-09T08:52:46.237Z,957.09
2019-01-09T08:53:46.206Z,957.04
2019-01-09T08:54:46.178Z,957.09
2019-01-09T08:55:46.145Z,957.09
2019-01-09T08:56:46.114Z,957.12
2019-01-09T08:57:46.084Z,957.12
2019-01-09T08:58:46.052Z,957.14
2019-01-09T08:59:51.278Z,957.17
2019-01-09T09:00:45.992Z,957.18
2019-01-09T09:01:45.962Z,957.18
2019-01-09T09:02:45.932Z,957.19
2019-01-09T09:03:45.901Z,957.18
2019-01-09T09:04:45.870Z,957.17
2019-01-09T09:05:45.840Z,957.16
2019-01-09T09:06:45.812Z,957.18
2019-01-09T09:07:45.778Z,957.20
2019-01-09T09:08:45.748Z,957.19
2019-01-09T09:09:45.719Z,957.25
2019-01-09T09:10:45.687Z,957.25
2019-01-09T09:11:45.661Z,957.25
2019-01-09T09:12:45.626Z,957.29
2019-01-09T09:13:45.596Z,957.32
2019-01-09T09:14:45.565Z,957.33
2019-01-09T09:15:45.534Z,957.38
2019-01-09T09:16:45.504Z,957.41
2019-01-09T09:17:45.474Z,957.40
2019-01-09T09:18:45.443Z,957.39
2019-01-09T09:19:45.412Z,957.36
2019-01-09T09:20:45.382Z,957.37
2019-01-09T09:21:45.352Z,957.37
2019-01-09T09:22:45.335Z,957.42
2019-01-09T09:23:45.291Z,957.40
2019-01-09T09:24:45.259Z,957.39
2019-01-09T09:25:45.230Z,957.39
2019-01-09T09:26:45.200Z,957.39
2019-01-09T09:27:45.169Z,957.39
2019-01-09T09:28:45.139Z,957.39
2019-01-09T09:29:45.110Z,957.39
2019-01-09T09:30:45.080Z,957.44
2019-01-09T09:31:45.048Z,957.41
2019-01-09T09:32:45.023Z,957.40
2019-01-09T09:33:44.988Z,957.40
2019-01-09T09:34:44.960Z,957.36
2019-01-09T09:35:44.928Z,957.41
2019-01-09T09:36:44.896Z,957.41
2019-01-09T09:37:45.617Z,957.41
2019-01-09T09:38:44.839Z,957.42
2019-01-09T09:39:44.806Z,957.40
2019-01-09T09:40:44.776Z,957.34
2019-01-09T09:41:44.746Z,957.33
2019-01-09T09:42:44.716Z,957.27
2019-01-09T09:43:44.685Z,957.26
2019-01-09T09:44:44.655Z,957.25
2019-01-09T09:45:44.625Z,957.24
2019-01-09T09:46:44.596Z,957.21
2019-01-09T09:47:44.565Z,957.25
2019-01-09T09:48:44.535Z,957.23
2019-01-09T09:49:44.510Z,957.22
2019-01-09T09:50:44.475Z,957.27
2019-01-09T09:51:44.444Z,957.27
2019-01-09T09:52:44.415Z,957.30
2019-01-09T09:53:45.140Z,957.34
2019-01-09T09:54:44.355Z,957.27
2019-01-09T09:55:44.325Z,957.32
2019-01-09T09:56:44.295Z,957.32
2019-01-09T09:57:44.265Z,957.28
2019-01-09T09:58:44.235Z,957.27
2019-01-09T09:59:44.205Z,957.27
2019-01-09T10:00:44.174Z,957.27
2019-01-09T10:01:44.145Z,957.26
2019-01-09T10:02:44.117Z,957.26
2019-01-09T10:03:44.085Z,957.26
2019-01-09T10:04:44.055Z,957.25
2019-01-09T10:05:44.025Z,957.26
2019-01-09T10:06:43.997Z,957.28
2019-01-09T10:07:43.965Z,957.28
2019-01-09T10:08:43.936Z,957.35
2019-01-09T10:09:48.410Z,957.30
2019-01-09T10:10:43.877Z,957.28
2019-01-09T10:11:43.846Z,957.24
2019-01-09T10:12:43.816Z,957.27
2019-01-09T10:13:43.786Z,957.23
2019-01-09T10:14:43.757Z,957.28
2019-01-09T10:15:43.726Z,957.27
2019-01-09T10:16:43.698Z,957.21
2019-01-09T10:17:43.668Z,957.18
2019-01-09T10:18:43.638Z,957.21
2019-01-09T10:19:43.607Z,957.18
2019-01-09T10:20:43.578Z,957.21
2019-01-09T10:21:43.548Z,957.17
2019-01-09T10:22:43.520Z,957.20
2019-01-09T10:23:43.489Z,957.24
2019-01-09T10:24:43.458Z,957.23
2019-01-09T10:25:43.432Z,957.25
2019-01-09T10:26:47.903Z,957.26
2019-01-09T10:27:43.368Z,957.30
2019-01-09T10:28:43.345Z,957.32
2019-01-09T10:29:43.311Z,957.29
2019-01-09T10:30:43.278Z,957.26
2019-01-09T10:31:43.248Z,957.29
2019-01-09T10:32:43.219Z,957.30
2019-01-09T10:33:43.188Z,957.38
2019-01-09T10:34:43.159Z,957.30
2019-01-09T10:35:43.128Z,957.28
2019-01-09T10:36:43.100Z,957.30
2019-01-09T10:37:43.070Z,957.29
2019-01-09T10:38:44.556Z,957.27
2019-01-09T10:39:43.008Z,957.28
2019-01-09T10:40:42.979Z,957.28
2019-01-09T10:41:42.949Z,957.24
2019-01-09T10:42:42.920Z,957.32
2019-01-09T10:43:42.891Z,957.31
2019-01-09T10:44:42.860Z,957.31
2019-01-09T10:45:42.830Z,957.25
2019-01-09T10:46:42.799Z,957.28
2019-01-09T10:47:42.769Z,957.25
2019-01-09T10:48:42.739Z,957.30
2019-01-09T10:49:42.710Z,957.28
2019-01-09T10:50:42.681Z,957.29
2019-01-09T10:51:42.649Z,957.26
2019-01-09T10:52:42.621Z,957.31
2019-01-09T10:53:42.590Z,957.29
2019-01-09T10:54:42.560Z,957.28
2019-01-09T10:55:42.529Z,957.30
2019-01-09T10:56:42.499Z,957.27
2019-01-09T10:57:42.471Z,957.26
2019-01-09T10:58:42.441Z,957.31
2019-01-09T10:59:47.062Z,957.25
2019-01-09T11:00:42.382Z,957.25
2019-01-09T11:01:42.350Z,957.26
2019-01-09T11:02:42.321Z,957.29
2019-01-09T11:03:42.290Z,957.25
2019-01-09T11:04:42.260Z,957.27
2019-01-09T11:05:43.731Z,957.27
2019-01-09T11:06:42.201Z,957.24
2019-01-09T11:07:42.170Z,957.27
2019-01-09T11:08:46.843Z,957.28
2019-01-09T11:09:42.112Z,957.21
2019-01-09T11:10:42.081Z,957.19
2019-01-09T11:11:43.552Z,957.24
2019-01-09T11:12:42.021Z,957.19
2019-01-09T11:13:41.993Z,957.24
2019-01-09T11:14:41.961Z,957.26
2019-01-09T11:15:41.932Z,957.17
2019-01-09T11:16:41.902Z,957.17
2019-01-09T11:17:43.384Z,957.23
2019-01-09T11:18:41.847Z,957.20
2019-01-09T11:19:41.812Z,957.17
2019-01-09T11:20:41.788Z,957.15
2019-01-09T11:21:41.753Z,957.13
2019-01-09T11:22:41.723Z,957.12
2019-01-09T11:23:41.693Z,957.12
2019-01-09T11:24:41.663Z,957.11
2019-01-09T11:25:41.633Z,957.14
2019-01-09T11:26:41.604Z,957.13
2019-01-09T11:27:41.574Z,957.10
2019-01-09T11:28:41.544Z,957.10
2019-01-09T11:29:41.514Z,957.17
2019-01-09T11:30:41.485Z,957.14
2019-01-09T11:31:41.460Z,957.15
2019-01-09T11:32:41.424Z,957.11
2019-01-09T11:33:41.394Z,957.15
2019-01-09T11:34:41.365Z,957.10
2019-01-09T11:35:41.334Z,957.09
2019-01-09T11:36:41.305Z,957.07
2019-01-09T11:37:41.275Z,957.07
2019-01-09T11:38:41.248Z,957.03
2019-01-09T11:39:41.215Z,957.05
2019-01-09T11:40:41.185Z,957.06
2019-01-09T11:41:41.156Z,957.04
2019-01-09T11:42:41.126Z,957.00
2019-01-09T11:43:41.095Z,957.01
2019-01-09T11:44:41.065Z,957.03
2019-01-09T11:45:41.038Z,956.96
2019-01-09T11:46:41.010Z,957.00
2019-01-09T11:47:40.975Z,957.09
2019-01-09T11:48:40.946Z,957.12
2019-01-09T11:49:40.921Z,957.09
2019-01-09T11:50:45.390Z,957.06
2019-01-09T11:51:40.855Z,957.05
2019-01-09T11:52:40.826Z,957.06
2019-01-09T11:53:40.796Z,957.04
2019-01-09T11:54:41.652Z,957.04
2019-01-09T11:55:40.755Z,957.06
2019-01-09T11:56:41.457Z,957.04
2019-01-09T11:57:40.713Z,956.98
2019-01-09T11:58:40.648Z,957.07
2019-01-09T11:59:40.618Z,957.04
2019-01-09T12:00:42.713Z,957.04
2019-01-09T12:01:40.559Z,957.02
2019-01-09T12:02:40.529Z,957.08
2019-01-09T12:03:40.499Z,957.03
2019-01-09T12:04:40.470Z,957.03
2019-01-09T12:05:40.440Z,957.03
2019-01-09T12:06:40.410Z,957.01
2019-01-09T12:07:40.381Z,956.91
2019-01-09T12:08:40.355Z,956.93
2019-01-09T12:09:40.327Z,956.91
2019-01-09T12:10:40.294Z,957.00
2019-01-09T12:11:40.278Z,956.94
2019-01-09T12:12:40.983Z,956.91
2019-01-09T12:13:40.235Z,956.88
2019-01-09T12:14:40.181Z,956.90
2019-01-09T12:15:40.144Z,956.89
2019-01-09T12:16:40.117Z,956.93
2019-01-09T12:17:40.089Z,956.92
2019-01-09T12:18:40.057Z,956.89
2019-01-09T12:19:40.027Z,956.90
2019-01-09T12:20:39.998Z,956.92
2019-01-09T12:21:39.969Z,956.87
2019-01-09T12:22:39.940Z,956.85
2019-01-09T12:23:40.662Z,956.86
2019-01-09T12:24:39.881Z,956.87
2019-01-09T12:25:39.851Z,956.87
2019-01-09T12:26:39.917Z,956.85
2019-01-09T12:27:39.794Z,956.79
2019-01-09T12:28:39.763Z,956.80
2019-01-09T12:29:39.735Z,956.75
2019-01-09T12:30:39.706Z,956.78
2019-01-09T12:31:39.676Z,956.76
2019-01-09T12:32:39.646Z,956.78
2019-01-09T12:33:39.617Z,956.80
2019-01-09T12:34:39.588Z,956.77
2019-01-09T12:35:39.558Z,956.79
2019-01-09T12:36:39.529Z,956.77
2019-01-09T12:37:39.499Z,956.77
2019-01-09T12:38:39.470Z,956.72
2019-01-09T12:39:40.191Z,956.74
2019-01-09T12:40:39.413Z,956.74
2019-01-09T12:41:39.382Z,956.73
2019-01-09T12:42:39.355Z,956.72
2019-01-09T12:43:39.327Z,956.72
2019-01-09T12:44:39.295Z,956.75
2019-01-09T12:45:39.265Z,956.71
2019-01-09T12:46:39.240Z,956.72
2019-01-09T12:47:39.244Z,956.74
2019-01-09T12:48:39.177Z,956.70
2019-01-09T12:49:39.148Z,956.71
2019-01-09T12:50:39.119Z,956.74
2019-01-09T12:51:39.088Z,956.71
2019-01-09T12:52:39.060Z,956.74
2019-01-09T12:53:39.030Z,956.75
2019-01-09T12:54:39.002Z,956.72
2019-01-09T12:55:41.225Z,956.72
2019-01-09T12:56:38.976Z,956.70
2019-01-09T12:57:38.914Z,956.67
2019-01-09T12:58:38.885Z,956.71
2019-01-09T12:59:38.859Z,956.73
2019-01-09T13:00:38.825Z,956.75
2019-01-09T13:01:38.797Z,956.75
2019-01-09T13:02:38.768Z,956.75
2019-01-09T13:03:38.738Z,956.73
2019-01-09T13:04:38.709Z,956.74
2019-01-09T13:05:38.680Z,956.75
2019-01-09T13:06:38.653Z,956.75
2019-01-09T13:07:38.621Z,956.79
2019-01-09T13:08:38.594Z,956.81
2019-01-09T13:09:38.564Z,956.78
2019-01-09T13:10:38.535Z,956.71
2019-01-09T13:11:38.505Z,956.72
2019-01-09T13:12:39.227Z,956.72
2019-01-09T13:13:38.457Z,956.73
2019-01-09T13:14:38.418Z,956.74
2019-01-09T13:15:38.388Z,956.76
2019-01-09T13:16:38.359Z,956.74
2019-01-09T13:17:38.333Z,956.76
2019-01-09T13:18:38.303Z,956.80
2019-01-09T13:19:38.274Z,956.76
2019-01-09T13:20:38.242Z,956.82
2019-01-09T13:21:38.214Z,956.81
2019-01-09T13:22:38.186Z,956.78
2019-01-09T13:23:38.155Z,956.80
2019-01-09T13:24:38.126Z,956.79
2019-01-09T13:25:38.097Z,956.79
2019-01-09T13:26:38.068Z,956.81
2019-01-09T13:27:38.120Z,956.83
2019-01-09T13:28:38.010Z,956.78
2019-01-09T13:29:37.982Z,956.79
2019-01-09T13:30:37.952Z,956.82
2019-01-09T13:31:37.923Z,956.79
2019-01-09T13:32:37.894Z,956.74
2019-01-09T13:33:37.866Z,956.79
2019-01-09T13:34:37.835Z,956.81
2019-01-09T13:35:37.806Z,956.84
2019-01-09T13:36:37.776Z,956.84
2019-01-09T13:37:37.750Z,956.84
2019-01-09T13:38:37.718Z,956.89
2019-01-09T13:39:37.689Z,956.90
2019-01-09T13:40:37.659Z,956.90
2019-01-09T13:41:37.630Z,956.89
2019-01-09T13:42:37.601Z,956.91
2019-01-09T13:43:37.573Z,956.89
2019-01-09T13:44:37.541Z,956.89
2019-01-09T13:45:37.513Z,956.89
2019-01-09T13:46:37.483Z,956.93
2019-01-09T13:47:37.453Z,956.91
2019-01-09T13:48:37.423Z,956.93
2019-01-09T13:49:37.395Z,956.97
2019-01-09T13:50:37.365Z,956.99
2019-01-09T13:51:37.335Z,957.00
2019-01-09T13:52:37.305Z,956.98
2019-01-09T13:53:37.276Z,956.99
2019-01-09T13:54:37.247Z,957.00
2019-01-09T13:55:37.216Z,957.01
2019-01-09T13:56:37.187Z,957.00
2019-01-09T13:57:37.157Z,957.00
2019-01-09T13:58:37.127Z,957.00
2019-01-09T13:59:38.599Z,957.00
2019-01-09T14:00:37.068Z,956.99
2019-01-09T14:01:37.037Z,957.02
2019-01-09T14:02:37.054Z,957.02
2019-01-09T14:03:36.977Z,957.03
2019-01-09T14:04:36.946Z,957.11
2019-01-09T14:05:36.918Z,957.11
2019-01-09T14:06:36.887Z,957.10
2019-01-09T14:07:36.857Z,957.13
2019-01-09T14:08:36.890Z,957.14
2019-01-09T14:09:39.657Z,957.13
2019-01-09T14:10:36.767Z,957.15
2019-01-09T14:11:36.737Z,957.18
2019-01-09T14:12:36.708Z,957.15
2019-01-09T14:13:36.678Z,957.14
2019-01-09T14:14:36.647Z,957.12
2019-01-09T14:15:36.616Z,957.13
2019-01-09T14:16:36.586Z,957.12
2019-01-09T14:17:36.556Z,957.11
2019-01-09T14:18:36.527Z,957.10
2019-01-09T14:19:36.497Z,957.07
2019-01-09T14:20:36.471Z,957.12
2019-01-09T14:21:36.436Z,957.10
2019-01-09T14:22:36.407Z,957.11
2019-01-09T14:23:36.376Z,957.09
2019-01-09T14:24:36.347Z,957.07
2019-01-09T14:25:36.317Z,957.12
2019-01-09T14:26:36.288Z,957.09
2019-01-09T14:27:37.009Z,957.08
2019-01-09T14:28:36.229Z,957.06
2019-01-09T14:29:36.196Z,957.05
2019-01-09T14:30:36.167Z,957.03
2019-01-09T14:31:36.137Z,957.05
2019-01-09T14:32:36.105Z,957.06
2019-01-09T14:33:36.076Z,957.06
2019-01-09T14:34:36.046Z,957.06
2019-01-09T14:35:36.015Z,957.04
2019-01-09T14:36:35.985Z,957.06
2019-01-09T14:37:35.956Z,957.08
2019-01-09T14:38:35.929Z,957.11
2019-01-09T14:39:35.896Z,957.13
2019-01-09T14:40:37.250Z,957.16
2019-01-09T14:41:35.837Z,957.12
2019-01-09T14:42:35.807Z,957.12
2019-01-09T14:43:35.786Z,957.14
2019-01-09T14:44:35.747Z,957.15
2019-01-09T14:45:35.717Z,957.17
2019-01-09T14:46:35.687Z,957.11
2019-01-09T14:47:35.657Z,957.12
2019-01-09T14:48:35.627Z,957.13
2019-01-09T14:49:35.598Z,957.16
2019-01-09T14:50:35.569Z,957.12
2019-01-09T14:51:43.071Z,957.14
2019-01-09T14:52:35.507Z,957.14
2019-01-09T14:53:35.478Z,957.11
2019-01-09T14:54:35.449Z,957.16
2019-01-09T14:55:35.421Z,957.15
2019-01-09T14:56:35.388Z,957.12
2019-01-09T14:57:35.358Z,957.16
2019-01-09T14:58:35.328Z,957.13
2019-01-09T14:59:35.296Z,957.12
2019-01-09T15:00:35.268Z,957.12
2019-01-09T15:01:35.238Z,957.10
2019-01-09T15:02:35.209Z,957.08
2019-01-09T15:03:35.234Z,957.07
2019-01-09T15:04:35.197Z,957.05
2019-01-09T15:05:35.157Z,957.08
2019-01-09T15:06:35.088Z,957.05
2019-01-09T15:07:35.057Z,957.08
2019-01-09T15:08:35.027Z,957.11
2019-01-09T15:09:34.998Z,957.08
2019-01-09T15:10:34.968Z,957.06
2019-01-09T15:11:34.937Z,957.12
2019-01-09T15:12:34.908Z,957.12
2019-01-09T15:13:34.878Z,957.13
2019-01-09T15:14:34.849Z,957.09
2019-01-09T15:15:40.822Z,957.04
2019-01-09T15:16:34.797Z,957.02
2019-01-09T15:17:34.757Z,957.00
2019-01-09T15:18:34.727Z,956.97
2019-01-09T15:19:34.697Z,956.99
2019-01-09T15:20:34.666Z,956.93
2019-01-09T15:21:35.387Z,956.94
2019-01-09T15:22:34.607Z,956.97
2019-01-09T15:23:34.576Z,956.97
2019-01-09T15:24:34.547Z,957.03
2019-01-09T15:25:34.516Z,957.06
2019-01-09T15:26:34.487Z,957.01
2019-01-09T15:27:34.456Z,956.98
2019-01-09T15:28:34.425Z,956.95
2019-01-09T15:29:34.396Z,956.93
2019-01-09T15:30:34.367Z,956.94
2019-01-09T15:31:34.336Z,957.03
2019-01-09T15:32:34.310Z,957.06
2019-01-09T15:33:34.276Z,957.06
2019-01-09T15:34:34.246Z,957.08
2019-01-09T15:35:34.215Z,957.11
2019-01-09T15:36:34.186Z,957.07
2019-01-09T15:37:34.156Z,957.08
2019-01-09T15:38:34.128Z,957.08
2019-01-09T15:39:34.096Z,957.08
2019-01-09T15:40:34.064Z,957.07
2019-01-09T15:41:34.035Z,957.08
2019-01-09T15:42:34.005Z,957.10
2019-01-09T15:43:33.974Z,957.10
2019-01-09T15:44:33.943Z,957.14
2019-01-09T15:45:33.913Z,957.14
2019-01-09T15:46:33.884Z,957.14
2019-01-09T15:47:33.852Z,957.10
2019-01-09T15:48:33.822Z,957.10
2019-01-09T15:49:33.792Z,957.13
2019-01-09T15:50:33.766Z,957.11
2019-01-09T15:51:33.731Z,957.16
2019-01-09T15:52:33.700Z,957.14
2019-01-09T15:53:33.670Z,957.09
2019-01-09T15:54:33.640Z,957.12
2019-01-09T15:55:33.609Z,957.10
2019-01-09T15:56:33.579Z,957.11
2019-01-09T15:57:33.547Z,957.07
2019-01-09T15:58:33.518Z,957.12
2019-01-09T15:59:33.487Z,957.10
2019-01-09T16:00:33.457Z,957.15
2019-01-09T16:01:33.428Z,957.16
2019-01-09T16:02:33.399Z,957.16
2019-01-09T16:03:33.366Z,957.14
2019-01-09T16:04:33.352Z,957.18
2019-01-09T16:05:33.306Z,957.18
2019-01-09T16:06:33.275Z,957.19
2019-01-09T16:07:33.246Z,957.23
2019-01-09T16:08:33.214Z,957.21
2019-01-09T16:09:33.184Z,957.22
2019-01-09T16:10:33.156Z,957.23
2019-01-09T16:11:33.124Z,957.24
2019-01-09T16:12:33.092Z,957.28
2019-01-09T16:13:33.061Z,957.28
2019-01-09T16:14:33.032Z,957.26
2019-01-09T16:15:33.000Z,957.27
2019-01-09T16:16:32.970Z,957.29
2019-01-09T16:17:32.944Z,957.31
2019-01-09T16:18:32.911Z,957.33
2019-01-09T16:19:32.879Z,957.37
2019-01-09T16:20:32.849Z,957.34
2019-01-09T16:21:32.818Z,957.33
2019-01-09T16:22:32.788Z,957.39
2019-01-09T16:23:32.758Z,957.41
2019-01-09T16:24:32.728Z,957.39
2019-01-09T16:25:32.697Z,957.39
2019-01-09T16:26:32.668Z,957.44
2019-01-09T16:27:32.635Z,957.48
2019-01-09T16:28:32.605Z,957.46
2019-01-09T16:29:33.937Z,957.44
2019-01-09T16:30:34.268Z,957.48